createdAt,value
2022-08-20T19:57:08.162Z,53.96
2022-08-20T19:59:37.943Z,54.24
2022-08-20T20:02:20.065Z,54.51
2022-08-20T20:04:55.446Z,54.72
2022-08-20T20:07:39.885Z,54.94
2022-08-20T20:10:12.128Z,55.17
2022-08-20T20:12:41.154Z,55.26
2022-08-20T20:15:10.979Z,55.48
2022-08-20T20:17:41.419Z,55.68
2022-08-20T20:20:32.727Z,55.81
2022-08-20T20:23:16.365Z,55.95
2022-08-20T20:25:49.466Z,56.22
2022-08-20T20:28:20.754Z,56.46
2022-08-20T20:30:50.115Z,56.67
2022-08-20T20:33:32.489Z,56.52
2022-08-20T20:36:06.536Z,56.92
2022-08-20T20:38:39.643Z,57.06
2022-08-20T20:41:20.946Z,58.98
2022-08-20T20:44:00.629Z,57.75
2022-08-20T20:46:32.936Z,57.82
2022-08-20T20:57:18.752Z,59.01
2022-08-20T21:00:02.005Z,58.70
2022-08-20T21:02:31.673Z,58.70
2022-08-20T21:05:01.931Z,58.69
2022-08-20T21:07:35.068Z,58.88
2022-08-20T21:10:05.225Z,59.12
2022-08-20T21:12:35.890Z,59.10
2022-08-20T21:15:12.727Z,59.08
2022-08-20T21:17:44.028Z,59.30
2022-08-20T21:20:17.939Z,59.32
2022-08-20T21:22:47.357Z,59.30
2022-08-20T21:25:19.661Z,59.39
2022-08-20T21:27:52.672Z,59.24
2022-08-20T21:30:24.299Z,59.45
2022-08-20T21:32:53.981Z,59.64
2022-08-20T21:35:23.498Z,59.72
2022-08-20T21:37:53.053Z,60.02
2022-08-20T21:40:22.505Z,60.90
2022-08-20T21:42:58.477Z,61.29
2022-08-20T21:45:28.464Z,61.45
2022-08-20T21:47:58.389Z,61.54
2022-08-20T21:50:28.880Z,61.63
2022-08-20T21:52:59.784Z,61.84
2022-08-20T21:55:38.780Z,61.85
2022-08-20T21:58:10.734Z,62.03
2022-08-20T22:00:56.933Z,62.25
2022-08-20T22:03:31.491Z,62.43
2022-08-20T22:06:07.895Z,62.55
2022-08-20T22:08:36.738Z,62.56
2022-08-20T22:11:08.676Z,62.56
2022-08-20T22:13:39.757Z,62.36
2022-08-20T22:16:12.205Z,62.14
2022-08-20T22:18:42.197Z,62.11
2022-08-20T22:21:17.103Z,62.03
2022-08-20T22:23:47.630Z,61.90
2022-08-20T22:26:18.198Z,61.82
2022-08-20T22:28:51.301Z,61.90
2022-08-20T22:31:27.796Z,62.04
2022-08-20T22:33:57.864Z,62.01
2022-08-20T22:36:27.473Z,61.97
2022-08-20T22:38:57.192Z,62.03
2022-08-20T22:41:27.381Z,62.26
2022-08-20T22:43:57.450Z,62.24
2022-08-20T22:46:34.556Z,62.32
2022-08-20T22:49:07.185Z,62.34
2022-08-20T22:51:38.757Z,62.32
2022-08-20T22:54:10.937Z,62.33
2022-08-20T22:56:40.954Z,62.34
2022-08-20T22:59:09.317Z,62.39
2022-08-20T23:01:40.727Z,62.35
2022-08-20T23:04:27.721Z,62.41
2022-08-20T23:06:58.626Z,62.50
2022-08-20T23:09:29.305Z,62.68
2022-08-20T23:11:59.302Z,62.66
2022-08-20T23:14:28.433Z,62.66
2022-08-20T23:17:11.340Z,62.58
2022-08-20T23:19:43.201Z,62.62
2022-08-20T23:22:13.269Z,62.68
2022-08-20T23:24:42.868Z,62.78
2022-08-20T23:27:15.479Z,62.89
2022-08-20T23:29:45.306Z,62.98
2022-08-20T23:32:14.629Z,63.01
2022-08-20T23:34:44.055Z,63.01
2022-08-20T23:37:14.262Z,63.03
2022-08-20T23:39:46.926Z,62.95
2022-08-20T23:42:16.519Z,62.99
2022-08-20T23:44:46.394Z,63.06
2022-08-20T23:47:20.136Z,63.14
2022-08-20T23:49:48.674Z,63.20
2022-08-20T23:52:17.633Z,63.18
2022-08-20T23:54:46.302Z,63.16
2022-08-20T23:57:15.234Z,63.24
2022-08-20T23:59:51.344Z,63.24
